createdAt,value
2023-01-13T00:00:27.688Z,16.95
2023-01-13T00:03:29.827Z,16.73
2023-01-13T00:06:31.936Z,16.25
2023-01-13T00:09:34.115Z,16.55
2023-01-13T00:12:39.681Z,16.25
2023-01-13T00:15:42.265Z,16.08
2023-01-13T00:18:44.888Z,14.97
2023-01-13T00:21:47.182Z,14.73
2023-01-13T00:24:49.508Z,14.68
2023-01-13T00:27:51.930Z,14.80
2023-01-13T00:30:58.531Z,14.65
2023-01-13T00:34:01.180Z,13.82
2023-01-13T00:37:03.428Z,14.90
2023-01-13T00:40:06.175Z,13.85
2023-01-13T00:43:23.997Z,14.65
2023-01-13T00:46:26.254Z,14.55
2023-01-13T00:49:28.459Z,14.27
2023-01-13T00:52:32.193Z,14.00
2023-01-13T00:55:34.436Z,12.73
2023-01-13T00:58:36.831Z,13.23
2023-01-13T01:01:39.953Z,12.35
2023-01-13T01:04:42.334Z,14.00
2023-01-13T01:07:44.465Z,13.13
2023-01-13T01:10:46.627Z,13.85
2023-01-13T01:13:49.358Z,12.65
2023-01-13T01:16:51.562Z,12.85
2023-01-13T01:19:53.772Z,12.23
2023-01-13T01:22:55.945Z,12.68
2023-01-13T01:26:02.045Z,12.13
2023-01-13T01:29:04.240Z,13.10
2023-01-13T01:32:06.483Z,12.65
2023-01-13T01:35:08.874Z,13.27
2023-01-13T01:38:11.246Z,12.88
2023-01-13T01:41:19.050Z,13.05
2023-01-13T01:44:42.846Z,13.00
2023-01-13T01:47:47.871Z,13.05
2023-01-13T01:50:50.023Z,12.60
2023-01-13T01:53:53.953Z,14.65
2023-01-13T01:56:56.268Z,13.13
2023-01-13T02:00:02.670Z,13.37
2023-01-13T02:03:15.761Z,13.55
2023-01-13T02:06:18.612Z,12.30
2023-01-13T02:09:20.794Z,13.70
2023-01-13T02:12:29.977Z,13.77
2023-01-13T02:15:47.985Z,13.27
2023-01-13T02:19:23.678Z,13.43
2023-01-13T02:22:37.973Z,11.90
2023-01-13T02:26:03.561Z,13.60
2023-01-13T02:29:30.931Z,12.75
2023-01-13T02:32:41.567Z,12.90
2023-01-13T02:35:59.619Z,12.02
2023-01-13T02:39:12.080Z,12.73
2023-01-13T02:42:51.729Z,12.50
2023-01-13T02:45:59.486Z,12.38
2023-01-13T02:49:05.476Z,11.85
2023-01-13T02:52:40.031Z,11.85
2023-01-13T02:55:48.989Z,12.30
2023-01-13T02:58:51.567Z,13.75
2023-01-13T03:01:56.174Z,13.18
2023-01-13T03:05:00.247Z,13.33
2023-01-13T03:08:21.470Z,13.07
2023-01-13T03:11:27.202Z,13.95
2023-01-13T03:14:43.008Z,13.45
2023-01-13T03:17:50.469Z,12.57
2023-01-13T03:21:21.810Z,12.48
2023-01-13T03:24:30.612Z,13.45
2023-01-13T03:27:42.071Z,12.80
2023-01-13T03:30:55.105Z,12.70
2023-01-13T03:34:19.673Z,12.50
2023-01-13T03:37:27.533Z,11.97
2023-01-13T03:40:33.907Z,11.80
2023-01-13T03:44:03.331Z,11.82
2023-01-13T03:47:33.751Z,12.15
2023-01-13T03:50:40.767Z,11.00
2023-01-13T03:53:50.278Z,11.40
2023-01-13T03:57:04.176Z,11.48
2023-01-13T04:00:09.556Z,10.13
2023-01-13T04:03:48.060Z,11.48
2023-01-13T04:07:20.966Z,10.18
2023-01-13T04:10:30.283Z,11.03
2023-01-13T04:13:35.859Z,10.18
2023-01-13T04:16:38.454Z,10.23
2023-01-13T04:19:40.836Z,11.00
2023-01-13T04:22:43.847Z,10.18
2023-01-13T04:25:46.854Z,10.95
2023-01-13T04:28:49.289Z,10.68
2023-01-13T04:31:51.479Z,10.70
2023-01-13T04:34:54.271Z,11.48
2023-01-13T04:37:56.708Z,10.45
2023-01-13T04:40:58.974Z,9.70
2023-01-13T04:44:01.177Z,9.45
2023-01-13T04:47:04.391Z,9.60
2023-01-13T04:50:06.891Z,9.90
2023-01-13T04:53:09.197Z,9.50
2023-01-13T04:56:11.388Z,9.52
2023-01-13T04:59:14.221Z,10.02
2023-01-13T05:02:19.928Z,10.27
2023-01-13T05:05:22.268Z,10.43
2023-01-13T05:08:24.485Z,10.40
2023-01-13T05:11:45.317Z,9.50
2023-01-13T05:15:05.911Z,10.20
2023-01-13T05:18:08.275Z,10.18
2023-01-13T05:21:30.444Z,9.45
2023-01-13T05:24:51.249Z,11.05
2023-01-13T05:27:58.824Z,10.43
2023-01-13T05:31:01.364Z,10.32
2023-01-13T05:34:03.819Z,10.33
2023-01-13T05:37:07.939Z,11.30
2023-01-13T05:40:30.279Z,11.55
2023-01-13T05:43:33.349Z,10.53
2023-01-13T05:46:35.596Z,10.43
2023-01-13T05:49:37.928Z,10.98
2023-01-13T05:52:40.344Z,10.65
2023-01-13T05:55:43.592Z,11.07
2023-01-13T05:58:45.788Z,11.95
2023-01-13T06:01:48.110Z,11.25
2023-01-13T06:04:50.350Z,11.47
2023-01-13T06:07:56.918Z,11.20
2023-01-13T06:10:59.248Z,10.60
2023-01-13T06:14:01.458Z,10.77
2023-01-13T06:17:03.727Z,9.95
2023-01-13T06:20:08.291Z,11.30
2023-01-13T06:23:11.897Z,10.70
2023-01-13T06:26:21.279Z,10.52
2023-01-13T06:29:24.073Z,10.32
2023-01-13T06:32:30.141Z,10.60
2023-01-13T06:35:34.490Z,10.17
2023-01-13T06:38:40.261Z,10.10
2023-01-13T06:42:16.644Z,9.77
2023-01-13T06:45:21.583Z,10.23
2023-01-13T06:48:27.517Z,10.02
2023-01-13T06:51:29.719Z,9.30
2023-01-13T06:54:32.273Z,10.40
2023-01-13T06:57:34.632Z,10.15
2023-01-13T07:00:39.850Z,10.07
2023-01-13T07:03:42.327Z,9.65
2023-01-13T07:06:45.263Z,9.57
2023-01-13T07:09:49.180Z,8.32
2023-01-13T07:13:25.746Z,9.55
2023-01-13T07:16:32.724Z,8.90
2023-01-13T07:19:35.252Z,9.40
2023-01-13T07:22:37.436Z,8.68
2023-01-13T07:25:39.619Z,9.60
2023-01-13T07:28:41.995Z,9.60
2023-01-13T07:31:44.556Z,8.95
2023-01-13T07:34:46.780Z,8.32
2023-01-13T07:37:49.031Z,8.53
2023-01-13T07:40:51.456Z,9.60
2023-01-13T07:43:54.142Z,7.57
2023-01-13T07:47:00.341Z,8.83
2023-01-13T07:50:02.664Z,8.80
2023-01-13T07:53:05.109Z,8.15
2023-01-13T07:56:08.196Z,9.43
2023-01-13T07:59:10.957Z,9.65
2023-01-13T08:02:20.720Z,9.82
2023-01-13T08:05:32.810Z,11.25
2023-01-13T08:08:40.578Z,10.40
2023-01-13T08:12:17.929Z,10.35
2023-01-13T08:15:21.690Z,10.18
2023-01-13T08:18:23.948Z,9.93
2023-01-13T08:21:28.426Z,9.52
2023-01-13T08:24:30.655Z,8.73
2023-01-13T08:27:34.892Z,10.05
2023-01-13T08:30:37.141Z,8.32
2023-01-13T08:33:40.258Z,8.75
2023-01-13T08:36:43.569Z,8.60
2023-01-13T08:39:48.487Z,8.33
2023-01-13T08:42:53.025Z,8.45
2023-01-13T08:46:01.319Z,7.28
2023-01-13T08:49:04.218Z,7.83
2023-01-13T08:52:13.184Z,8.25
2023-01-13T08:55:17.219Z,8.20
2023-01-13T09:02:33.779Z,7.35
2023-01-13T09:05:39.353Z,9.55
2023-01-13T09:08:46.651Z,9.13
2023-01-13T09:12:09.509Z,7.30
2023-01-13T09:15:12.277Z,7.95
2023-01-13T09:18:14.700Z,7.70
2023-01-13T09:21:20.026Z,8.30
2023-01-13T09:24:23.972Z,6.63
2023-01-13T09:27:27.209Z,7.25
2023-01-13T09:30:32.425Z,7.57
2023-01-13T09:33:54.593Z,6.72
2023-01-13T09:36:56.877Z,7.55
2023-01-13T09:40:20.116Z,7.65
2023-01-13T09:44:07.523Z,7.43
2023-01-13T09:47:20.818Z,7.28
2023-01-13T09:50:41.904Z,7.43
2023-01-13T09:54:02.738Z,8.00
2023-01-13T09:57:25.853Z,7.68
2023-01-13T10:00:35.525Z,8.07
2023-01-13T10:03:38.196Z,8.30
2023-01-13T10:06:43.123Z,7.68
2023-01-13T10:09:55.160Z,7.63
2023-01-13T10:13:15.605Z,7.90
2023-01-13T10:16:33.915Z,7.43
2023-01-13T10:19:49.760Z,8.15
2023-01-13T10:23:29.588Z,7.43
2023-01-13T10:26:40.179Z,7.00
2023-01-13T10:29:42.388Z,7.45
2023-01-13T10:32:49.435Z,7.38
2023-01-13T10:35:51.761Z,7.55
2023-01-13T10:39:07.155Z,7.72
2023-01-13T10:42:17.320Z,7.82
2023-01-13T10:45:24.854Z,7.90
2023-01-13T10:49:25.529Z,8.23
2023-01-13T10:52:35.406Z,8.02
2023-01-13T10:55:38.384Z,8.77
2023-01-13T10:58:50.135Z,8.47
2023-01-13T11:02:36.430Z,8.23
2023-01-13T11:05:41.417Z,8.70
2023-01-13T11:08:55.675Z,9.02
2023-01-13T11:12:05.837Z,9.00
2023-01-13T11:15:12.047Z,9.68
2023-01-13T11:18:25.228Z,9.20
2023-01-13T11:21:35.867Z,9.13
2023-01-13T11:24:41.061Z,9.85
2023-01-13T11:27:47.147Z,8.88
2023-01-13T11:30:56.849Z,9.47
2023-01-13T11:34:25.375Z,9.10
2023-01-13T11:37:28.833Z,9.18
2023-01-13T11:40:41.707Z,10.02
2023-01-13T11:44:10.029Z,8.85
2023-01-13T11:47:12.604Z,10.45
2023-01-13T11:51:10.595Z,10.32
2023-01-13T11:54:47.909Z,9.60
2023-01-13T11:58:14.497Z,10.57
2023-01-13T12:01:31.299Z,9.88
2023-01-13T12:05:17.450Z,10.63
2023-01-13T12:08:47.650Z,11.02
2023-01-13T12:12:11.612Z,9.55
2023-01-13T12:15:21.482Z,10.38
2023-01-13T12:18:33.353Z,10.18
2023-01-13T12:22:11.869Z,10.57
2023-01-13T12:25:34.491Z,10.10
2023-01-13T12:28:56.648Z,10.67
2023-01-13T12:32:00.787Z,11.38
2023-01-13T12:35:31.553Z,10.20
2023-01-13T12:38:43.530Z,10.87
2023-01-13T12:42:12.425Z,10.43
2023-01-13T12:45:14.601Z,11.63
2023-01-13T12:48:45.859Z,11.43
2023-01-13T12:51:55.674Z,12.05
2023-01-13T12:55:04.258Z,11.23
2023-01-13T12:58:07.134Z,11.77
2023-01-13T13:01:14.473Z,11.17
2023-01-13T13:04:21.611Z,11.50
2023-01-13T13:07:31.605Z,12.10
2023-01-13T13:10:39.313Z,11.83
2023-01-13T13:13:47.226Z,11.07
2023-01-13T13:16:50.335Z,14.48
2023-01-13T13:19:52.727Z,16.48
2023-01-13T13:22:54.898Z,13.00
2023-01-13T13:26:03.163Z,13.52
2023-01-13T13:29:27.447Z,12.15
2023-01-13T13:33:08.630Z,12.20
2023-01-13T13:36:54.095Z,11.38
2023-01-13T13:40:14.926Z,11.45
2023-01-13T13:43:38.650Z,11.73
2023-01-13T13:46:56.548Z,12.40
2023-01-13T13:50:13.623Z,11.25
2023-01-13T13:53:18.892Z,12.27
2023-01-13T13:56:24.892Z,12.30
2023-01-13T13:59:30.731Z,11.93
2023-01-13T14:02:36.727Z,12.65
2023-01-13T14:05:38.922Z,10.10
2023-01-13T14:08:46.126Z,11.70
2023-01-13T14:11:57.921Z,11.25
2023-01-13T14:15:00.317Z,10.90
2023-01-13T14:18:05.399Z,10.50
2023-01-13T14:21:29.305Z,10.48
2023-01-13T14:24:32.243Z,11.60
2023-01-13T14:27:35.397Z,10.23
2023-01-13T14:30:37.714Z,10.80
2023-01-13T14:33:43.638Z,10.55
2023-01-13T14:36:50.917Z,11.30
2023-01-13T14:39:53.205Z,11.27
2023-01-13T14:43:03.322Z,10.50
2023-01-13T14:46:05.554Z,11.57
2023-01-13T14:49:25.006Z,11.93
2023-01-13T14:52:38.399Z,11.75
2023-01-13T14:55:42.120Z,11.55
2023-01-13T14:58:44.351Z,12.13
2023-01-13T15:01:47.683Z,12.50
2023-01-13T15:04:53.918Z,11.52
2023-01-13T15:08:11.541Z,11.70
2023-01-13T15:11:27.567Z,12.75
2023-01-13T15:14:34.483Z,11.90
2023-01-13T15:17:36.990Z,12.03
2023-01-13T15:20:40.196Z,11.73
2023-01-13T15:23:42.740Z,13.32
2023-01-13T15:26:44.963Z,12.30
2023-01-13T15:29:47.988Z,12.38
2023-01-13T15:32:50.323Z,12.18
2023-01-13T15:35:53.303Z,12.25
2023-01-13T15:38:56.044Z,11.43
2023-01-13T15:42:16.875Z,11.95
2023-01-13T15:45:37.691Z,11.68
2023-01-13T15:48:39.859Z,12.77
2023-01-13T15:51:42.706Z,10.68
2023-01-13T15:54:44.908Z,10.85
2023-01-13T15:57:48.940Z,11.57
2023-01-13T16:00:51.132Z,11.68
2023-01-13T16:03:53.646Z,12.13
2023-01-13T16:06:56.569Z,11.13
2023-01-13T16:10:01.807Z,11.97
2023-01-13T16:13:04.081Z,11.52
2023-01-13T16:16:22.035Z,11.68
2023-01-13T16:19:24.233Z,10.30
2023-01-13T16:22:26.445Z,9.77
2023-01-13T16:25:28.683Z,9.90
2023-01-13T16:28:30.850Z,10.88
2023-01-13T16:31:34.369Z,10.52
2023-01-13T16:34:36.634Z,11.02
2023-01-13T16:37:38.900Z,10.35
2023-01-13T16:40:41.084Z,10.50
2023-01-13T16:43:43.701Z,9.82
2023-01-13T16:46:46.189Z,10.00
2023-01-13T16:49:48.402Z,9.97
2023-01-13T16:52:50.643Z,9.98
2023-01-13T16:55:52.881Z,9.75
2023-01-13T16:58:57.707Z,10.00
2023-01-13T17:02:01.928Z,10.48
2023-01-13T17:05:04.760Z,10.68
2023-01-13T17:08:07.161Z,10.50
2023-01-13T17:11:10.332Z,9.00
2023-01-13T17:14:18.609Z,9.68
2023-01-13T17:17:24.338Z,9.88
2023-01-13T17:20:26.598Z,10.00
2023-01-13T17:23:29.802Z,9.98
2023-01-13T17:26:37.195Z,10.32
2023-01-13T17:29:39.664Z,10.32
2023-01-13T17:32:42.159Z,10.63
2023-01-13T17:35:46.027Z,9.63
2023-01-13T17:38:48.268Z,10.30
2023-01-13T17:41:51.351Z,9.97
2023-01-13T17:44:54.420Z,10.38
2023-01-13T17:48:00.041Z,9.85
2023-01-13T17:51:03.525Z,10.47
2023-01-13T17:54:05.865Z,10.18
2023-01-13T17:57:08.109Z,10.85
2023-01-13T18:00:12.470Z,11.00
2023-01-13T18:03:15.897Z,11.40
2023-01-13T18:06:21.467Z,10.32
2023-01-13T18:09:26.798Z,10.68
2023-01-13T18:12:29.067Z,10.43
2023-01-13T18:15:31.479Z,10.27
2023-01-13T18:18:35.234Z,10.63
2023-01-13T18:21:56.178Z,10.20
2023-01-13T18:25:16.788Z,10.80
2023-01-13T18:28:19.083Z,10.85
2023-01-13T18:31:21.362Z,10.45
2023-01-13T18:34:23.627Z,11.07
2023-01-13T18:37:26.626Z,11.35
2023-01-13T18:40:28.831Z,11.60
2023-01-13T18:43:33.280Z,10.20
2023-01-13T18:46:35.729Z,11.82
2023-01-13T18:49:37.967Z,11.25
2023-01-13T18:52:41.321Z,11.77
2023-01-13T18:55:43.544Z,11.65
2023-01-13T18:58:51.973Z,12.25
2023-01-13T19:01:54.330Z,11.70
2023-01-13T19:04:57.217Z,12.82
2023-01-13T19:07:59.740Z,11.77
2023-01-13T19:11:05.938Z,11.77
2023-01-13T19:14:08.798Z,12.17
2023-01-13T19:17:13.941Z,12.18
2023-01-13T19:20:16.553Z,12.57
2023-01-13T19:23:19.476Z,12.33
2023-01-13T19:26:21.850Z,12.05
2023-01-13T19:29:24.218Z,12.30
2023-01-13T19:32:27.508Z,12.25
2023-01-13T19:35:29.775Z,12.82
2023-01-13T19:38:32.226Z,12.73
2023-01-13T19:41:53.056Z,13.23
2023-01-13T19:45:14.138Z,12.57
2023-01-13T19:48:16.737Z,14.07
2023-01-13T19:51:19.033Z,14.23
2023-01-13T19:54:21.349Z,13.83
2023-01-13T19:57:27.496Z,13.23
2023-01-13T20:00:29.713Z,13.45
2023-01-13T20:03:35.859Z,14.00
2023-01-13T20:06:38.135Z,15.93
2023-01-13T20:09:43.365Z,14.43
2023-01-13T20:12:45.657Z,16.00
2023-01-13T20:15:48.044Z,13.53
2023-01-13T20:18:51.401Z,13.68
2023-01-13T20:21:53.603Z,12.45
2023-01-13T20:24:55.895Z,13.90
2023-01-13T20:27:58.763Z,13.48
2023-01-13T20:31:01.049Z,12.43
2023-01-13T20:34:03.311Z,13.93
2023-01-13T20:37:05.699Z,13.25
2023-01-13T20:40:09.606Z,13.13
2023-01-13T20:43:11.871Z,13.48
2023-01-13T20:46:14.079Z,12.70
2023-01-13T20:49:16.403Z,13.05
2023-01-13T20:52:18.680Z,13.73
2023-01-13T20:55:21.219Z,13.90
2023-01-13T20:58:23.403Z,13.13
2023-01-13T21:01:26.597Z,13.63
2023-01-13T21:04:29.046Z,14.43
2023-01-13T21:07:31.289Z,13.48
2023-01-13T21:10:33.460Z,14.73
2023-01-13T21:13:54.163Z,14.93
2023-01-13T21:16:56.388Z,12.80
2023-01-13T21:19:59.160Z,14.73
2023-01-13T21:23:02.401Z,13.77
2023-01-13T21:26:05.242Z,13.30
2023-01-13T21:29:07.603Z,13.10
2023-01-13T21:32:12.910Z,14.77
2023-01-13T21:35:15.284Z,14.77
2023-01-13T21:38:17.506Z,13.93
2023-01-13T21:41:40.228Z,14.88
2023-01-13T21:45:00.957Z,14.43
2023-01-13T21:48:03.304Z,13.47
2023-01-13T21:51:05.799Z,14.30
2023-01-13T21:54:07.997Z,13.77
2023-01-13T21:57:10.314Z,14.23
2023-01-13T22:00:13.117Z,13.93
2023-01-13T22:03:15.360Z,14.85
2023-01-13T22:06:17.626Z,14.05
2023-01-13T22:09:19.871Z,13.93
2023-01-13T22:12:24.427Z,13.85
2023-01-13T22:15:29.132Z,13.07
2023-01-13T22:18:31.274Z,13.13
2023-01-13T22:21:33.969Z,15.00
2023-01-13T22:24:39.025Z,15.23
2023-01-13T22:27:44.371Z,14.63
2023-01-13T22:30:49.739Z,17.50
2023-01-13T22:33:55.568Z,15.32
2023-01-13T22:36:58.143Z,14.93
2023-01-13T22:40:00.407Z,14.98
2023-01-13T22:43:02.722Z,13.88
2023-01-13T22:46:10.574Z,15.63
2023-01-13T22:49:13.689Z,15.03
2023-01-13T22:52:17.215Z,15.18
2023-01-13T22:55:19.442Z,14.68
2023-01-13T22:58:21.783Z,15.00
2023-01-13T23:01:25.996Z,14.18
2023-01-13T23:04:29.203Z,14.80
2023-01-13T23:07:31.455Z,15.60
2023-01-13T23:10:33.912Z,14.90
2023-01-13T23:13:38.108Z,15.00
2023-01-13T23:16:40.861Z,15.30
2023-01-13T23:19:43.272Z,14.63
2023-01-13T23:22:45.973Z,15.43
2023-01-13T23:25:53.639Z,15.38
2023-01-13T23:29:02.999Z,16.07
2023-01-13T23:32:05.557Z,15.73
2023-01-13T23:35:09.058Z,16.55
2023-01-13T23:38:11.373Z,15.30
2023-01-13T23:41:16.160Z,16.70
2023-01-13T23:44:18.355Z,15.57
2023-01-13T23:47:20.543Z,16.70
2023-01-13T23:50:22.790Z,15.63
2023-01-13T23:53:31.030Z,16.27
2023-01-13T23:56:34.811Z,16.10
2023-01-13T23:59:37.011Z,15.83
